Historyczne dane pomiarowe

Dodano dane terminowe – wersja testowa.

Dane z okresu 1951-2019

Wersja bazy: 1.34 [2019-03-16, lista zmian], aktualizacja planowana na 2019-04-15

Dane meteo z obszaru Polski uzyskane na podstawie danych udostępnionych przez Instytut Meteorologii i Gospodarki Wodnej – Państwowy Instytut Badawczy.

 

Wybierz Datę:    

       

TemperaturaWilgotnośćZachmurzenieWiatrCiśnienieWidzialnośćZjawiska
 Data    tng td wb rh cc ccl cl cm ch dir g1 g2 mslp ppp      
1999-07-25 00:00:00 15.4--- 13.0 14.086wxwxwxwx2wx--1021.9 998.9 0.0---wxw1
1999-07-25 01:00:00 14.9--- 13.2 13.990wxwxwx2wx--1021.5 998.5----wx
1999-07-25 02:00:00 15.1--- 13.3 14.089wxwxwx2wx--1021.3 998.3----wx
1999-07-25 03:00:00 15.7--- 13.5 14.487wxwxwx2wx--1021.2 998.2----wx
1999-07-25 04:00:00 15.3--- 13.3 14.188wxwxwx2wx--1021.3 998.3----wx
1999-07-25 05:00:00 15.5--- 13.5 14.388wxwxwxwx2wx--1021.2 998.2----wx
1999-07-25 06:00:00 16.3--- 14.0 14.986wxwxwx2wx--1021.3 998.4 0.0---wx
1999-07-25 07:00:00 18.3--- 14.2 15.877wxwxwxwx2wx--1021.3 998.5----wx
1999-07-25 08:00:00 19.7--- 14.9 16.774wxwxwxwx2wx--1021.3 998.6----wx
1999-07-25 09:00:00 21.8--- 15.5 17.867wxwxwxwx2wx--1021.1 998.6----wx
1999-07-25 10:00:00 22.4--- 14.8 17.662wxwxwxwx2wx--1020.7 998.3----wx
1999-07-25 11:00:00 23.0--- 15.5 18.263wxwxwxwx2wx--1020.4 998.0----wx
1999-07-25 12:00:00 23.9--- 14.7 18.156wxwxwxwx2wx--1019.8 997.5 0.0---wx
1999-07-25 13:00:00 24.1--- 15.3 18.558wxwxwx1wx--1019.5 997.2----wx
1999-07-25 14:00:00 24.1--- 15.0 18.357wxwxwx1wx--1019.1 996.8----wx
1999-07-25 15:00:00 24.6--- 14.8 18.455wxwxwxwx1wx--1018.4 996.2----wx
1999-07-25 16:00:00 24.7--- 16.0 19.159wxwxwxwx1wx--1018.3 996.1----wx
1999-07-25 17:00:00 24.7--- 15.5 18.857wxwxwxwx2wx--1018.2 996.0----wx
1999-07-25 18:00:00 23.9--- 15.5 18.559wxwxwxwx1wx--1018.3 996.0 0.0---wx
1999-07-25 19:00:00 23.1--- 15.6 18.363wxwxwxwx1wx--1018.2 995.9----wx
1999-07-25 20:00:00 22.4--- 15.1 17.863wxwxwx1wx--1018.5 996.1----wx
1999-07-25 21:00:00 21.8--- 15.7 17.968wxwxwx1wx--1018.3 995.9----wx
1999-07-25 22:00:00 21.4--- 15.4 17.669wxwxwx1wx--1018.4 995.9----wx
1999-07-25 23:00:00 21.2--- 15.0 17.368wxwxwx1wx--1018.2 995.7----wx

 

Źródłem pochodzenia danych jest Instytut Meteorologii i Gospodarki Wodnej – Państwowy Instytut Badawczy. Dane Instytutu Meteorologii i Gospodarki Wodnej – Państwowego Instytutu Badawczego zostały przetworzone.

Dane źródłowe można odnaleźć na stronie https://dane.imgw.pl